Kullu Manali Airport


Codes: VIBR/KUU
Name: Kullu Manali Airport
City:
Country: India
Elevation: 3573 ft.

Photos at Kullu Manali Airport


   Photos courtesy of SpottingLog. You can add your own sightings and photos by signing up for a free trial today.



No photos found.

Weather at Kullu Manali Airport


Time (UTC)DescriptionTempratureWindCloud coverageVisibilityPressureHumidity
19-Apr-2024 06:00Few Clouds26°C7 mph, SW24%10000m1010hPa22%
19-Apr-2024 09:00Light Rain24°C7 mph, SW75%10000m1010hPa40%
19-Apr-2024 12:00Light Rain21°C2 mph, W95%10000m1008hPa57%
19-Apr-2024 15:00Moderate Rain15°C9 mph, NE76%10000m1015hPa84%
19-Apr-2024 18:00Light Rain15°C9 mph, NE85%10000m1015hPa77%
19-Apr-2024 21:00Light Rain14°C9 mph, NE39%10000m1014hPa78%
20-Apr-2024 00:00Light Rain13°C9 mph, NE56%10000m1013hPa71%
20-Apr-2024 03:00Scattered Clouds21°C2 mph, N33%10000m1011hPa43%
20-Apr-2024 06:00Few Clouds26°C7 mph, W23%10000m1009hPa23%
20-Apr-2024 09:00Scattered Clouds26°C7 mph, SW36%10000m1007hPa29%
20-Apr-2024 12:00Light Rain22°C4 mph, SE58%10000m1009hPa51%
20-Apr-2024 15:00Light Rain16°C9 mph, NE30%10000m1012hPa67%
20-Apr-2024 18:00Few Clouds15°C9 mph, NE17%10000m1013hPa62%
20-Apr-2024 21:00Clear Sky15°C9 mph, NE4%10000m1012hPa59%
21-Apr-2024 00:00Clear Sky15°C9 mph, NE5%10000m1012hPa55%
21-Apr-2024 03:00Clear Sky23°C2 mph, N6%10000m1011hPa31%
21-Apr-2024 06:00Clear Sky28°C7 mph, W2%10000m1008hPa21%
21-Apr-2024 09:00Broken Clouds29°C9 mph, SW54%10000m1007hPa22%
21-Apr-2024 12:00Light Rain26°C4 mph, SW68%10000m1007hPa36%
21-Apr-2024 15:00Light Rain18°C9 mph, NE29%10000m1012hPa63%
21-Apr-2024 18:00Light Rain17°C9 mph, NE34%10000m1013hPa63%
21-Apr-2024 21:00Light Rain15°C9 mph, NE54%10000m1013hPa73%
22-Apr-2024 00:00Light Rain15°C9 mph, NE68%10000m1013hPa74%
22-Apr-2024 03:00Light Rain21°C4 mph, NE100%10000m1012hPa49%
22-Apr-2024 06:00Light Rain27°C7 mph, W99%10000m1010hPa27%
22-Apr-2024 09:00Moderate Rain15°C4 mph, SE99%4113m1017hPa91%
22-Apr-2024 12:00Light Rain20°C7 mph, E99%10000m1012hPa59%
22-Apr-2024 15:00Light Rain15°C9 mph, NE38%10000m1015hPa73%
22-Apr-2024 18:00Scattered Clouds14°C9 mph, NE34%10000m1016hPa65%
22-Apr-2024 21:00Light Rain14°C9 mph, NE35%10000m1015hPa67%
23-Apr-2024 00:00Light Rain14°C9 mph, NE35%10000m1014hPa60%
23-Apr-2024 03:00Light Rain22°C2 mph, NE53%10000m1012hPa37%
23-Apr-2024 06:00Broken Clouds27°C4 mph, W71%10000m1010hPa21%
23-Apr-2024 09:00Broken Clouds27°C2 mph, NW62%10000m1008hPa26%
23-Apr-2024 12:00Moderate Rain14°C7 mph, E72%1048m1017hPa98%
23-Apr-2024 15:00Moderate Rain15°C9 mph, NE100%10000m1015hPa80%
23-Apr-2024 18:00Broken Clouds15°C9 mph, NE82%10000m1015hPa71%
23-Apr-2024 21:00Scattered Clouds14°C9 mph, NE36%10000m1014hPa66%
24-Apr-2024 00:00Few Clouds14°C9 mph, NE21%10000m1013hPa59%
24-Apr-2024 03:00Clear Sky23°C2 mph, NE0%10000m1012hPa30%